createdAt,value
2017-11-18T00:00:04.191Z,91.99
2017-11-18T00:01:04.164Z,91.42
2017-11-18T00:02:04.156Z,91.52
2017-11-18T00:03:04.119Z,91.61
2017-11-18T00:04:04.096Z,91.80
2017-11-18T00:05:04.074Z,91.89
2017-11-18T00:06:04.047Z,91.47
2017-11-18T00:07:04.033Z,91.80
2017-11-18T00:08:04.001Z,91.89
2017-11-18T00:09:03.998Z,91.80
2017-11-18T00:10:03.951Z,91.33
2017-11-18T00:11:03.940Z,91.80
2017-11-18T00:12:03.910Z,91.99
2017-11-18T00:13:03.886Z,91.61
2017-11-18T00:14:03.863Z,91.99
2017-11-18T00:15:03.831Z,91.61
2017-11-18T00:16:03.808Z,91.99
2017-11-18T00:17:03.781Z,92.04
2017-11-18T00:18:03.760Z,91.99
2017-11-18T00:19:03.743Z,91.80
2017-11-18T00:20:03.716Z,91.99
2017-11-18T00:21:03.687Z,91.80
2017-11-18T00:22:03.673Z,92.09
2017-11-18T00:23:03.649Z,92.75
2017-11-18T00:24:03.621Z,92.66
2017-11-18T00:25:03.601Z,92.56
2017-11-18T00:26:03.570Z,92.37
2017-11-18T00:27:03.545Z,92.47
2017-11-18T00:28:03.526Z,92.47
2017-11-18T00:29:03.505Z,92.47
2017-11-18T00:30:03.480Z,92.66
2017-11-18T00:31:18.151Z,92.66
2017-11-18T00:32:03.437Z,92.47
2017-11-18T00:33:03.427Z,92.37
2017-11-18T00:34:03.384Z,92.56
2017-11-18T00:35:03.360Z,92.56
2017-11-18T00:36:03.334Z,92.75
2017-11-18T00:37:03.315Z,92.28
2017-11-18T00:38:03.286Z,92.56
2017-11-18T00:39:03.270Z,92.37
2017-11-18T00:40:03.243Z,92.56
2017-11-18T00:41:03.213Z,92.09
2017-11-18T00:42:03.190Z,92.09
2017-11-18T00:43:03.172Z,92.37
2017-11-18T00:44:03.150Z,92.28
2017-11-18T00:45:03.123Z,92.56
2017-11-18T00:46:03.100Z,92.56
2017-11-18T00:47:03.083Z,92.37
2017-11-18T00:48:03.050Z,92.09
2017-11-18T00:49:03.025Z,91.99
2017-11-18T00:50:03.002Z,92.09
2017-11-18T00:51:02.982Z,91.89
2017-11-18T00:52:02.954Z,91.99
2017-11-18T00:53:02.931Z,92.28
2017-11-18T00:54:02.904Z,91.80
2017-11-18T00:55:02.898Z,91.52
2017-11-18T00:56:02.857Z,91.80
2017-11-18T00:57:02.834Z,91.71
2017-11-18T00:58:02.814Z,91.80
2017-11-18T00:59:02.794Z,91.42
2017-11-18T01:00:02.766Z,91.52
2017-11-18T01:01:02.746Z,91.42
2017-11-18T01:02:02.716Z,91.14
2017-11-18T01:03:02.695Z,91.04
2017-11-18T01:04:02.670Z,91.24
2017-11-18T01:05:02.647Z,91.04
2017-11-18T01:06:02.623Z,91.04
2017-11-18T01:07:02.606Z,91.42
2017-11-18T01:08:02.576Z,90.95
2017-11-18T01:09:02.551Z,90.57
2017-11-18T01:10:02.530Z,91.04
2017-11-18T01:11:02.506Z,89.90
2017-11-18T01:12:02.532Z,90.09
2017-11-18T01:13:02.457Z,89.62
2017-11-18T01:14:02.430Z,89.62
2017-11-18T01:15:02.438Z,89.62
2017-11-18T01:16:02.386Z,89.53
2017-11-18T01:17:02.365Z,89.33
2017-11-18T01:18:02.339Z,89.05
2017-11-18T01:19:02.322Z,89.53
2017-11-18T01:20:02.288Z,89.05
2017-11-18T01:21:02.264Z,88.76
2017-11-18T01:22:02.240Z,89.90
2017-11-18T01:23:02.222Z,89.81
2017-11-18T01:24:02.205Z,89.33
2017-11-18T01:25:02.170Z,90.19
2017-11-18T01:26:02.157Z,90.66
2017-11-18T01:27:02.135Z,90.47
2017-11-18T01:28:02.102Z,90.19
2017-11-18T01:29:02.094Z,90.14
2017-11-18T01:30:02.049Z,89.58
2017-11-18T01:31:02.026Z,89.58
2017-11-18T01:32:02.001Z,89.76
2017-11-18T01:33:01.986Z,89.39
2017-11-18T01:34:01.957Z,89.20
2017-11-18T01:35:01.935Z,89.76
2017-11-18T01:36:01.922Z,89.48
2017-11-18T01:37:01.883Z,89.81
2017-11-18T01:38:01.865Z,89.48
2017-11-18T01:39:01.853Z,89.58
2017-11-18T01:40:01.814Z,90.05
2017-11-18T01:41:01.807Z,90.00
2017-11-18T01:42:01.764Z,89.76
2017-11-18T01:43:01.744Z,89.95
2017-11-18T01:44:01.722Z,89.43
2017-11-18T01:45:01.702Z,90.33
2017-11-18T01:46:01.690Z,90.28
2017-11-18T01:47:01.645Z,90.14
2017-11-18T01:48:01.624Z,90.33
2017-11-18T01:49:01.602Z,90.24
2017-11-18T01:50:01.582Z,90.24
2017-11-18T01:51:01.610Z,90.38
2017-11-18T01:52:01.530Z,90.24
2017-11-18T01:53:01.504Z,90.24
2017-11-18T01:54:01.485Z,89.76
2017-11-18T01:55:01.457Z,90.24
2017-11-18T01:56:01.439Z,90.24
2017-11-18T01:57:01.407Z,90.33
2017-11-18T01:58:01.388Z,90.33
2017-11-18T01:59:01.359Z,91.00
2017-11-18T02:00:01.334Z,90.71
2017-11-18T02:01:01.317Z,90.43
2017-11-18T02:02:01.291Z,90.71
2017-11-18T02:03:01.265Z,90.90
2017-11-18T02:04:01.260Z,90.81
2017-11-18T02:05:01.223Z,90.90
2017-11-18T02:06:01.194Z,90.33
2017-11-18T02:07:01.169Z,90.71
2017-11-18T02:08:01.149Z,90.62
2017-11-18T02:09:01.125Z,91.00
2017-11-18T02:10:01.095Z,90.62
2017-11-18T02:11:01.083Z,90.81
2017-11-18T02:12:01.048Z,91.00
2017-11-18T02:13:01.031Z,91.09
2017-11-18T02:14:01.017Z,90.43
2017-11-18T02:15:00.977Z,90.52
2017-11-18T02:16:00.965Z,90.81
2017-11-18T02:17:00.934Z,90.81
2017-11-18T02:18:00.906Z,90.62
2017-11-18T02:19:00.885Z,90.90
2017-11-18T02:20:00.860Z,91.00
2017-11-18T02:21:00.832Z,90.71
2017-11-18T02:22:00.814Z,90.71
2017-11-18T02:23:00.787Z,90.71
2017-11-18T02:24:00.767Z,90.90
2017-11-18T02:25:00.736Z,90.43
2017-11-18T02:26:00.730Z,90.43
2017-11-18T02:27:00.765Z,90.71
2017-11-18T02:28:00.668Z,90.71
2017-11-18T02:29:00.680Z,90.33
2017-11-18T02:30:00.617Z,90.05
2017-11-18T02:31:00.598Z,90.14
2017-11-18T02:32:00.577Z,90.05
2017-11-18T02:33:00.561Z,89.48
2017-11-18T02:34:00.536Z,89.48
2017-11-18T02:35:00.498Z,89.67
2017-11-18T02:36:00.483Z,89.29
2017-11-18T02:37:00.460Z,89.20
2017-11-18T02:38:00.434Z,88.34
2017-11-18T02:39:00.409Z,88.24
2017-11-18T02:40:00.381Z,88.62
2017-11-18T02:41:00.355Z,88.24
2017-11-18T02:42:00.332Z,88.24
2017-11-18T02:43:00.306Z,88.62
2017-11-18T02:44:00.298Z,88.15
2017-11-18T02:45:00.258Z,87.87
2017-11-18T02:46:00.254Z,87.77
2017-11-18T02:47:00.221Z,87.77
2017-11-18T02:48:00.192Z,87.58
2017-11-18T02:49:00.163Z,87.96
2017-11-18T02:50:00.140Z,87.68
2017-11-18T02:51:00.117Z,87.49
2017-11-18T02:52:00.093Z,87.77
2017-11-18T02:53:00.071Z,87.58
2017-11-18T02:54:00.046Z,87.87
2017-11-18T02:55:00.025Z,87.77
2017-11-18T02:55:59.995Z,87.49
2017-11-18T02:56:59.980Z,87.30
2017-11-18T02:57:59.952Z,87.49
2017-11-18T02:58:59.934Z,87.58
2017-11-18T03:00:00.688Z,87.39
2017-11-18T03:00:59.877Z,86.91
2017-11-18T03:01:59.893Z,87.01
2017-11-18T03:02:59.828Z,86.82
2017-11-18T03:03:59.805Z,86.91
2017-11-18T03:04:59.795Z,87.01
2017-11-18T03:05:59.811Z,86.82
2017-11-18T03:06:59.788Z,87.30
2017-11-18T03:07:59.714Z,87.30
2017-11-18T03:08:59.690Z,87.68
2017-11-18T03:09:59.671Z,87.68
2017-11-18T03:10:59.636Z,87.49
2017-11-18T03:11:59.613Z,87.39
2017-11-18T03:12:59.589Z,86.91
2017-11-18T03:13:59.565Z,86.91
2017-11-18T03:14:59.540Z,87.11
2017-11-18T03:15:59.516Z,87.11
2017-11-18T03:16:59.492Z,87.30
2017-11-18T03:17:59.480Z,87.01
2017-11-18T03:18:59.444Z,87.01
2017-11-18T03:19:59.421Z,87.49
2017-11-18T03:20:59.398Z,86.82
2017-11-18T03:21:59.377Z,87.20
2017-11-18T03:22:59.354Z,87.39
2017-11-18T03:23:59.325Z,86.63
2017-11-18T03:24:59.298Z,86.25
2017-11-18T03:25:59.280Z,85.87
2017-11-18T03:26:59.253Z,86.63
2017-11-18T03:27:59.228Z,86.25
2017-11-18T03:28:59.210Z,86.72
2017-11-18T03:29:59.192Z,86.82
2017-11-18T03:30:59.161Z,86.54
2017-11-18T03:31:59.139Z,86.91
2017-11-18T03:32:59.114Z,87.30
2017-11-18T03:33:59.087Z,87.01
2017-11-18T03:34:59.062Z,86.44
2017-11-18T03:35:59.045Z,86.91
2017-11-18T03:36:59.018Z,87.11
2017-11-18T03:37:58.989Z,86.44
2017-11-18T03:38:58.962Z,86.82
2017-11-18T03:39:58.941Z,86.35
2017-11-18T03:40:58.917Z,87.20
2017-11-18T03:41:58.897Z,86.91
2017-11-18T03:42:58.866Z,87.30
2017-11-18T03:43:58.847Z,87.35
2017-11-18T03:44:58.852Z,87.06
2017-11-18T03:45:58.799Z,87.01
2017-11-18T03:46:58.782Z,87.11
2017-11-18T03:47:58.748Z,86.87
2017-11-18T03:48:58.721Z,86.97
2017-11-18T03:49:58.699Z,86.97
2017-11-18T03:50:58.678Z,87.06
2017-11-18T03:51:58.655Z,86.97
2017-11-18T03:52:58.626Z,87.11
2017-11-18T03:53:58.604Z,87.20
2017-11-18T03:54:58.576Z,86.87
2017-11-18T03:55:58.571Z,87.16
2017-11-18T03:56:58.528Z,87.16
2017-11-18T03:57:58.511Z,87.06
2017-11-18T03:58:58.497Z,86.87
2017-11-18T03:59:58.457Z,87.06
2017-11-18T04:00:58.434Z,87.16
2017-11-18T04:01:58.419Z,86.97
2017-11-18T04:02:58.404Z,86.78
2017-11-18T04:03:58.361Z,86.97
2017-11-18T04:04:58.336Z,86.97
2017-11-18T04:05:58.313Z,87.25
2017-11-18T04:06:58.305Z,86.49
2017-11-18T04:07:58.263Z,86.91
2017-11-18T04:08:58.238Z,87.06
2017-11-18T04:09:58.218Z,86.97
2017-11-18T04:10:58.198Z,86.87
2017-11-18T04:11:58.171Z,86.87
2017-11-18T04:12:58.141Z,87.16
2017-11-18T04:13:58.123Z,86.78
2017-11-18T04:14:58.092Z,87.25
2017-11-18T04:15:58.071Z,86.87
2017-11-18T04:16:58.046Z,87.25
2017-11-18T04:17:58.019Z,86.97
2017-11-18T04:18:57.995Z,87.16
2017-11-18T04:19:57.978Z,87.16
2017-11-18T04:20:57.948Z,86.87
2017-11-18T04:21:57.931Z,86.78
2017-11-18T04:22:57.964Z,86.87
2017-11-18T04:23:57.885Z,86.87
2017-11-18T04:24:57.853Z,87.45
2017-11-18T04:25:57.827Z,87.25
2017-11-18T04:26:57.803Z,87.63
2017-11-18T04:27:57.783Z,87.73
2017-11-18T04:28:57.754Z,87.35
2017-11-18T04:29:57.731Z,86.97
2017-11-18T04:30:57.704Z,87.25
2017-11-18T04:31:57.683Z,87.16
2017-11-18T04:32:57.663Z,87.63
2017-11-18T04:33:57.630Z,87.54
2017-11-18T04:34:57.608Z,87.54
2017-11-18T04:35:57.583Z,87.54
2017-11-18T04:36:57.566Z,87.45
2017-11-18T04:37:57.537Z,87.54
2017-11-18T04:38:57.512Z,87.35
2017-11-18T04:39:57.485Z,87.25
2017-11-18T04:40:57.464Z,87.35
2017-11-18T04:41:57.440Z,87.35
2017-11-18T04:42:57.413Z,87.25
2017-11-18T04:43:57.389Z,87.25
2017-11-18T04:44:57.363Z,86.97
2017-11-18T04:45:57.339Z,86.87
2017-11-18T04:46:57.321Z,87.25
2017-11-18T04:47:57.307Z,87.16
2017-11-18T04:48:57.266Z,86.78
2017-11-18T04:49:57.265Z,86.97
2017-11-18T04:50:57.228Z,87.45
2017-11-18T04:51:57.194Z,87.16
2017-11-18T04:52:57.174Z,87.54
2017-11-18T04:53:57.153Z,87.82
2017-11-18T04:54:57.121Z,87.54
2017-11-18T04:55:57.101Z,87.73
2017-11-18T04:56:57.070Z,87.63
2017-11-18T04:57:57.046Z,87.82
2017-11-18T04:58:57.025Z,88.01
2017-11-18T04:59:57.003Z,87.73
2017-11-18T05:00:57.026Z,87.92
2017-11-18T05:01:56.949Z,87.92
2017-11-18T05:02:56.925Z,87.35
2017-11-18T05:03:56.909Z,87.35
2017-11-18T05:04:56.877Z,87.73
2017-11-18T05:05:56.851Z,87.73
2017-11-18T05:06:56.830Z,87.45
2017-11-18T05:07:56.805Z,87.73
2017-11-18T05:08:56.792Z,87.73
2017-11-18T05:09:56.757Z,87.54
2017-11-18T05:10:56.739Z,87.45
2017-11-18T05:11:56.705Z,87.73
2017-11-18T05:12:56.681Z,87.73
2017-11-18T05:13:56.674Z,87.82
2017-11-18T05:14:56.636Z,87.92
2017-11-18T05:15:56.608Z,87.63
2017-11-18T05:16:56.581Z,87.45
2017-11-18T05:17:56.560Z,87.54
2017-11-18T05:18:56.539Z,87.35
2017-11-18T05:19:56.512Z,87.73
2017-11-18T05:20:56.487Z,87.82
2017-11-18T05:21:56.464Z,87.73
2017-11-18T05:22:56.436Z,88.29
2017-11-18T05:23:56.417Z,88.29
2017-11-18T05:24:56.403Z,88.20
2017-11-18T05:25:56.366Z,88.48
2017-11-18T05:26:56.358Z,88.39
2017-11-18T05:27:56.320Z,88.29
2017-11-18T05:28:56.294Z,88.58
2017-11-18T05:29:56.264Z,87.92
2017-11-18T05:30:56.245Z,87.73
2017-11-18T05:31:56.226Z,87.92
2017-11-18T05:32:56.197Z,87.82
2017-11-18T05:33:56.166Z,88.20
2017-11-18T05:34:56.159Z,87.82
2017-11-18T05:35:56.128Z,88.20
2017-11-18T05:36:56.104Z,87.73
2017-11-18T05:37:56.112Z,87.73
2017-11-18T05:38:56.046Z,87.73
2017-11-18T05:39:56.022Z,87.73
2017-11-18T05:40:55.997Z,87.63
2017-11-18T05:41:55.971Z,87.63
2017-11-18T05:42:55.949Z,87.35
2017-11-18T05:43:55.938Z,87.16
2017-11-18T05:44:55.899Z,87.06
2017-11-18T05:45:55.880Z,86.87
2017-11-18T05:46:55.860Z,86.87
2017-11-18T05:47:55.826Z,87.06
2017-11-18T05:48:55.808Z,86.87
2017-11-18T05:49:55.783Z,87.45
2017-11-18T05:50:55.753Z,87.06
2017-11-18T05:51:55.764Z,86.97
2017-11-18T05:52:55.707Z,87.16
2017-11-18T05:53:55.678Z,87.45
2017-11-18T05:54:55.659Z,87.16
2017-11-18T05:55:55.628Z,87.45
2017-11-18T05:56:55.608Z,87.35
2017-11-18T05:57:55.581Z,87.73
2017-11-18T05:58:55.563Z,87.82
2017-11-18T05:59:55.542Z,87.35
2017-11-18T06:00:55.509Z,87.54
2017-11-18T06:01:55.484Z,87.35
2017-11-18T06:04:27.539Z,86.78
2017-11-18T06:05:27.498Z,86.78
2017-11-18T06:06:27.476Z,87.16
2017-11-18T06:07:27.450Z,86.97
2017-11-18T06:08:27.431Z,87.35
2017-11-18T06:09:27.404Z,87.82
2017-11-18T06:10:27.373Z,87.68
2017-11-18T06:11:27.362Z,87.77
2017-11-18T06:12:27.334Z,87.68
2017-11-18T06:13:27.307Z,88.06
2017-11-18T06:14:27.279Z,87.68
2017-11-18T06:15:27.258Z,87.68
2017-11-18T06:16:27.229Z,88.25
2017-11-18T06:17:27.201Z,88.44
2017-11-18T06:18:27.180Z,88.35
2017-11-18T06:19:27.192Z,88.54
2017-11-18T06:20:27.136Z,88.44
2017-11-18T06:21:27.107Z,88.54
2017-11-18T06:22:27.081Z,88.54
2017-11-18T06:23:27.054Z,88.54
2017-11-18T06:24:27.039Z,88.73
2017-11-18T06:25:27.003Z,89.01
2017-11-18T06:26:26.991Z,88.73
2017-11-18T06:27:26.958Z,88.82
2017-11-18T06:28:26.930Z,89.58
2017-11-18T06:29:26.912Z,89.11
2017-11-18T06:30:26.881Z,88.82
2017-11-18T06:31:26.865Z,89.11
2017-11-18T06:32:26.833Z,89.01
2017-11-18T06:33:26.808Z,89.11
2017-11-18T06:34:26.784Z,89.58
2017-11-18T06:35:26.761Z,88.82
2017-11-18T06:36:26.730Z,88.25
2017-11-18T06:37:26.706Z,88.92
2017-11-18T06:38:26.681Z,88.82
2017-11-18T06:39:26.664Z,89.01
2017-11-18T06:40:26.641Z,88.35
2017-11-18T06:41:26.608Z,89.20
2017-11-18T06:42:26.585Z,88.92
2017-11-18T06:43:26.562Z,89.01
2017-11-18T06:44:26.535Z,88.82
2017-11-18T06:45:26.514Z,89.11
2017-11-18T06:46:26.487Z,88.63
2017-11-18T06:47:26.462Z,88.63
2017-11-18T06:48:26.436Z,88.44
2017-11-18T06:49:26.409Z,88.82
2017-11-18T06:50:26.383Z,88.82
2017-11-18T06:51:26.362Z,89.01
2017-11-18T06:52:26.335Z,88.63
2017-11-18T06:53:26.308Z,88.73
2017-11-18T06:54:26.285Z,87.87
2017-11-18T06:55:26.260Z,88.25
2017-11-18T06:56:26.276Z,88.63
2017-11-18T06:57:26.208Z,88.54
2017-11-18T06:58:26.185Z,88.63
2017-11-18T06:59:26.165Z,88.54
2017-11-18T07:00:26.146Z,89.29
2017-11-18T07:01:26.121Z,88.96
2017-11-18T07:02:26.085Z,89.11
2017-11-18T07:03:26.069Z,89.20
2017-11-18T07:04:40.591Z,88.82
2017-11-18T07:05:26.011Z,89.11
2017-11-18T07:06:25.986Z,88.96
2017-11-18T07:07:25.965Z,89.01
2017-11-18T07:08:25.965Z,88.63
2017-11-18T07:09:25.927Z,88.63
2017-11-18T07:10:25.885Z,88.44
2017-11-18T07:11:25.860Z,88.54
2017-11-18T07:12:25.835Z,88.40
2017-11-18T07:13:25.816Z,88.35
2017-11-18T07:14:25.785Z,89.11
2017-11-18T07:15:25.772Z,89.06
2017-11-18T07:16:25.734Z,88.78
2017-11-18T07:17:25.713Z,88.44
2017-11-18T07:18:25.685Z,88.73
2017-11-18T07:19:25.661Z,88.82
2017-11-18T07:20:25.657Z,88.54
2017-11-18T07:21:25.613Z,89.01
2017-11-18T07:22:25.664Z,88.92
2017-11-18T07:23:25.579Z,88.54
2017-11-18T07:24:25.555Z,88.25
2017-11-18T07:25:25.516Z,87.97
2017-11-18T07:26:25.486Z,88.16
2017-11-18T07:27:25.462Z,88.25
2017-11-18T07:28:25.435Z,88.73
2017-11-18T07:29:25.414Z,87.87
2017-11-18T07:30:25.387Z,87.97
2017-11-18T07:31:25.362Z,88.16
2017-11-18T07:32:25.335Z,88.06
2017-11-18T07:33:25.372Z,88.25
2017-11-18T07:34:25.289Z,88.35
2017-11-18T07:35:25.276Z,88.44
2017-11-18T07:36:25.236Z,87.77
2017-11-18T07:37:25.215Z,88.25
2017-11-18T07:38:25.201Z,87.68
2017-11-18T07:39:25.168Z,87.40
2017-11-18T07:40:25.137Z,87.30
2017-11-18T07:41:25.118Z,87.06
2017-11-18T07:42:25.099Z,86.55
2017-11-18T07:43:25.068Z,86.21
2017-11-18T07:44:25.039Z,86.40
2017-11-18T07:45:25.013Z,86.11
2017-11-18T07:46:25.002Z,86.02
2017-11-18T07:47:24.969Z,84.98
2017-11-18T07:48:24.945Z,84.98
2017-11-18T07:49:24.916Z,84.69
2017-11-18T07:50:24.899Z,84.59
2017-11-18T07:51:24.875Z,84.41
2017-11-18T07:52:24.859Z,84.88
2017-11-18T07:53:24.822Z,85.17
2017-11-18T07:54:24.797Z,85.55
2017-11-18T07:55:24.771Z,84.78
2017-11-18T07:56:24.745Z,83.84
2017-11-18T07:57:24.718Z,83.84
2017-11-18T07:58:24.695Z,84.03
2017-11-18T07:59:24.685Z,84.12
2017-11-18T08:00:24.645Z,84.12
2017-11-18T08:01:24.620Z,84.41
2017-11-18T08:02:24.594Z,84.22
2017-11-18T08:03:24.578Z,83.55
2017-11-18T08:04:24.556Z,83.74
2017-11-18T08:05:24.523Z,83.55
2017-11-18T08:06:24.499Z,83.74
2017-11-18T08:07:24.482Z,83.84
2017-11-18T08:08:24.453Z,84.22
2017-11-18T08:09:24.426Z,83.55
2017-11-18T08:10:24.444Z,83.74
2017-11-18T08:11:24.386Z,83.65
2017-11-18T08:12:24.354Z,83.65
2017-11-18T08:13:24.335Z,83.94
2017-11-18T08:14:24.310Z,83.65
2017-11-18T08:15:24.278Z,84.03
2017-11-18T08:16:24.257Z,84.78
2017-11-18T08:17:24.227Z,86.02
2017-11-18T08:18:24.211Z,87.35
2017-11-18T08:19:24.184Z,86.21
2017-11-18T08:20:24.159Z,86.02
2017-11-18T08:21:24.140Z,84.78
2017-11-18T08:22:24.111Z,84.50
2017-11-18T08:23:24.084Z,83.94
2017-11-18T08:24:24.061Z,83.94
2017-11-18T08:25:24.036Z,84.12
2017-11-18T08:26:24.009Z,83.94
2017-11-18T08:27:23.990Z,83.74
2017-11-18T08:28:23.959Z,83.84
2017-11-18T08:29:23.938Z,83.94
2017-11-18T08:30:23.911Z,83.74
2017-11-18T08:31:23.891Z,83.65
2017-11-18T08:32:23.862Z,83.84
2017-11-18T08:33:23.840Z,83.78
2017-11-18T08:34:23.815Z,83.50
2017-11-18T08:35:23.791Z,83.40
2017-11-18T08:36:23.771Z,82.84
2017-11-18T08:37:23.741Z,83.22
2017-11-18T08:38:23.717Z,82.74
2017-11-18T08:39:23.693Z,81.88
2017-11-18T08:40:23.667Z,81.98
2017-11-18T08:41:23.650Z,81.70
2017-11-18T08:42:23.621Z,81.41
2017-11-18T08:43:23.598Z,81.51
2017-11-18T08:44:23.578Z,80.84
2017-11-18T08:45:23.551Z,81.13
2017-11-18T08:46:23.524Z,80.94
2017-11-18T08:47:23.505Z,80.75
2017-11-18T08:48:23.474Z,80.94
2017-11-18T08:49:23.462Z,81.04
2017-11-18T08:50:23.430Z,80.84
2017-11-18T08:51:23.404Z,80.94
2017-11-18T08:52:23.378Z,80.75
2017-11-18T08:53:23.358Z,80.84
2017-11-18T08:54:23.329Z,80.94
2017-11-18T08:55:23.303Z,80.65
2017-11-18T08:56:23.310Z,80.75
2017-11-18T08:57:23.260Z,80.84
2017-11-18T08:58:23.237Z,80.94
2017-11-18T08:59:23.207Z,80.46
2017-11-18T09:00:23.193Z,80.27
2017-11-18T09:01:23.159Z,80.46
2017-11-18T09:02:23.138Z,80.56
2017-11-18T09:03:23.114Z,80.65
2017-11-18T09:04:23.087Z,80.56
2017-11-18T09:05:23.063Z,80.56
2017-11-18T09:06:23.044Z,80.18
2017-11-18T09:07:23.015Z,79.99
2017-11-18T09:08:22.992Z,80.37
2017-11-18T09:09:22.965Z,79.71
2017-11-18T09:10:22.942Z,79.71
2017-11-18T09:11:22.918Z,79.61
2017-11-18T09:12:22.894Z,78.95
2017-11-18T09:13:22.880Z,79.33
2017-11-18T09:14:22.848Z,79.23
2017-11-18T09:15:22.821Z,79.71
2017-11-18T09:16:22.799Z,79.80
2017-11-18T09:17:22.780Z,79.61
2017-11-18T09:18:22.749Z,79.90
2017-11-18T09:19:22.731Z,79.80
2017-11-18T09:20:22.700Z,80.18
2017-11-18T09:21:22.680Z,80.08
2017-11-18T09:22:22.653Z,80.18
2017-11-18T09:23:22.629Z,80.08
2017-11-18T09:24:22.604Z,80.46
2017-11-18T09:25:22.618Z,80.18
2017-11-18T09:26:22.561Z,80.94
2017-11-18T09:27:22.537Z,80.46
2017-11-18T09:28:22.508Z,80.56
2017-11-18T09:29:22.485Z,81.04
2017-11-18T09:30:22.459Z,80.56
2017-11-18T09:31:22.438Z,80.18
2017-11-18T09:32:22.411Z,80.65
2017-11-18T09:33:22.389Z,79.99
2017-11-18T09:34:22.368Z,80.37
2017-11-18T09:35:37.203Z,79.71
2017-11-18T09:36:22.314Z,80.46
2017-11-18T09:37:22.292Z,79.61
2017-11-18T09:38:22.277Z,79.14
2017-11-18T09:39:22.249Z,79.23
2017-11-18T09:40:22.218Z,79.04
2017-11-18T09:41:22.201Z,78.85
2017-11-18T09:42:22.171Z,78.75
2017-11-18T09:43:22.147Z,77.52
2017-11-18T09:44:22.122Z,76.95
2017-11-18T09:45:22.097Z,75.62
2017-11-18T09:46:22.074Z,74.96
2017-11-18T09:47:22.056Z,73.63
2017-11-18T09:48:22.023Z,72.40
2017-11-18T09:49:22.013Z,71.45
2017-11-18T09:50:21.977Z,71.26
2017-11-18T09:51:21.968Z,71.07
2017-11-18T09:52:21.932Z,71.36
2017-11-18T09:53:21.906Z,70.88
2017-11-18T09:54:21.884Z,70.40
2017-11-18T09:55:21.855Z,70.40
2017-11-18T09:56:21.832Z,69.74
2017-11-18T09:57:21.811Z,70.59
2017-11-18T09:58:21.784Z,69.65
2017-11-18T09:59:21.762Z,69.08
2017-11-18T10:00:21.743Z,68.98
2017-11-18T10:01:21.711Z,69.17
2017-11-18T10:02:21.705Z,70.40
2017-11-18T10:03:21.709Z,71.07
2017-11-18T10:04:21.640Z,71.64
2017-11-18T10:05:21.616Z,71.07
2017-11-18T10:06:21.590Z,70.12
2017-11-18T10:07:21.567Z,69.93
2017-11-18T10:08:21.551Z,70.03
2017-11-18T10:09:21.517Z,69.74
2017-11-18T10:10:21.493Z,68.98
2017-11-18T10:11:21.469Z,69.27
2017-11-18T10:12:21.444Z,69.27
2017-11-18T10:13:21.427Z,68.32
2017-11-18T10:14:21.408Z,68.92
2017-11-18T10:15:21.379Z,68.51
2017-11-18T10:16:21.346Z,69.30
2017-11-18T10:17:21.330Z,69.17
2017-11-18T10:18:21.312Z,68.70
2017-11-18T10:19:21.278Z,68.83
2017-11-18T10:20:21.252Z,69.21
2017-11-18T10:21:21.229Z,69.30
2017-11-18T10:22:21.205Z,68.83
2017-11-18T10:23:21.181Z,68.16
2017-11-18T10:24:21.154Z,68.23
2017-11-18T10:25:21.129Z,67.21
2017-11-18T10:26:21.106Z,67.59
2017-11-18T10:27:21.087Z,67.02
2017-11-18T10:28:21.063Z,67.21
2017-11-18T10:29:21.037Z,67.37
2017-11-18T10:30:21.013Z,67.59
2017-11-18T10:31:20.985Z,67.21
2017-11-18T10:32:20.968Z,66.27
2017-11-18T10:33:20.938Z,66.46
2017-11-18T10:34:20.918Z,65.88
2017-11-18T10:35:20.891Z,66.08
2017-11-18T10:36:20.881Z,65.88
2017-11-18T10:37:20.846Z,66.17
2017-11-18T10:38:20.834Z,65.69
2017-11-18T10:39:20.796Z,65.88
2017-11-18T10:40:20.789Z,65.69
2017-11-18T10:41:20.791Z,65.88
2017-11-18T10:42:20.727Z,66.46
2017-11-18T10:43:20.697Z,65.98
2017-11-18T10:44:20.675Z,65.88
2017-11-18T10:45:20.650Z,65.69
2017-11-18T10:46:20.625Z,66.17
2017-11-18T10:47:20.601Z,66.64
2017-11-18T10:48:20.578Z,66.27
2017-11-18T10:49:20.555Z,65.60
2017-11-18T10:50:20.526Z,65.60
2017-11-18T10:51:20.511Z,66.08
2017-11-18T10:52:20.481Z,66.64
2017-11-18T10:53:20.459Z,65.69
2017-11-18T10:54:20.436Z,66.36
2017-11-18T10:55:20.409Z,65.98
2017-11-18T10:56:20.384Z,66.17
2017-11-18T10:57:20.357Z,66.27
2017-11-18T10:58:20.334Z,66.27
2017-11-18T10:59:20.311Z,66.17
2017-11-18T11:00:20.294Z,66.17
2017-11-18T11:01:20.261Z,67.40
2017-11-18T11:02:20.241Z,67.88
2017-11-18T11:03:20.213Z,67.31
2017-11-18T11:04:20.211Z,67.69
2017-11-18T11:05:20.171Z,66.83
2017-11-18T11:06:20.248Z,65.98
2017-11-18T11:07:20.119Z,66.08
2017-11-18T11:08:20.093Z,65.50
2017-11-18T11:09:20.071Z,65.31
2017-11-18T11:10:20.051Z,65.31
2017-11-18T11:11:20.021Z,64.94
2017-11-18T11:12:19.997Z,65.03
2017-11-18T11:13:19.973Z,65.22
2017-11-18T11:14:19.962Z,64.65
2017-11-18T11:15:19.925Z,64.94
2017-11-18T11:16:19.900Z,64.65
2017-11-18T11:17:19.881Z,65.12
2017-11-18T11:18:19.853Z,65.03
2017-11-18T11:19:19.871Z,65.22
2017-11-18T11:20:19.811Z,65.31
2017-11-18T11:21:19.780Z,65.12
2017-11-18T11:22:19.760Z,65.12
2017-11-18T11:23:19.734Z,65.41
2017-11-18T11:24:19.707Z,65.50
2017-11-18T11:25:19.698Z,65.50
2017-11-18T11:26:19.660Z,65.31
2017-11-18T11:27:19.637Z,65.79
2017-11-18T11:28:19.624Z,65.69
2017-11-18T11:29:19.595Z,65.50
2017-11-18T11:30:19.575Z,65.50
2017-11-18T11:31:19.540Z,65.03
2017-11-18T11:32:19.521Z,65.79
2017-11-18T11:33:19.495Z,65.88
2017-11-18T11:34:19.467Z,65.50
2017-11-18T11:35:19.451Z,65.31
2017-11-18T11:36:26.167Z,65.31
2017-11-18T11:37:19.398Z,65.22
2017-11-18T11:38:19.377Z,65.22
2017-11-18T11:39:19.347Z,64.75
2017-11-18T11:40:19.336Z,64.75
2017-11-18T11:41:19.302Z,65.03
2017-11-18T11:42:19.280Z,65.12
2017-11-18T11:43:19.259Z,65.31
2017-11-18T11:44:19.230Z,65.22
2017-11-18T11:45:19.206Z,64.65
2017-11-18T11:46:19.183Z,64.56
2017-11-18T11:47:19.156Z,65.41
2017-11-18T11:48:19.135Z,64.84
2017-11-18T11:49:19.109Z,64.84
2017-11-18T11:50:19.104Z,64.84
2017-11-18T11:51:19.065Z,64.56
2017-11-18T11:52:19.042Z,64.94
2017-11-18T11:53:19.022Z,64.08
2017-11-18T11:54:18.992Z,64.46
2017-11-18T11:55:19.033Z,64.27
2017-11-18T11:56:18.947Z,64.08
2017-11-18T11:57:18.981Z,64.17
2017-11-18T11:58:18.919Z,64.17
2017-11-18T11:59:18.869Z,64.46
2017-11-18T12:00:18.848Z,64.17
2017-11-18T12:01:18.826Z,64.17
2017-11-18T12:02:18.813Z,64.17
2017-11-18T12:03:18.782Z,64.37
2017-11-18T12:04:18.751Z,64.27
2017-11-18T12:05:18.729Z,64.27
2017-11-18T12:06:18.703Z,64.37
2017-11-18T12:07:18.676Z,64.75
2017-11-18T12:08:18.653Z,64.84
2017-11-18T12:09:18.631Z,64.46
2017-11-18T12:10:18.604Z,64.46
2017-11-18T12:11:18.589Z,64.94
2017-11-18T12:12:18.559Z,64.84
2017-11-18T12:13:18.533Z,64.56
2017-11-18T12:14:18.515Z,64.37
2017-11-18T12:15:18.493Z,64.46
2017-11-18T12:16:18.466Z,64.27
2017-11-18T12:17:18.442Z,63.98
2017-11-18T12:18:18.415Z,64.46
2017-11-18T12:19:18.393Z,64.08
2017-11-18T12:20:18.368Z,63.42
2017-11-18T12:21:18.344Z,63.32
2017-11-18T12:22:18.321Z,63.32
2017-11-18T12:23:18.294Z,63.60
2017-11-18T12:24:18.274Z,63.32
2017-11-18T12:25:18.247Z,63.51
2017-11-18T12:26:18.232Z,63.23
2017-11-18T12:27:18.199Z,63.79
2017-11-18T12:28:18.191Z,63.60
2017-11-18T12:29:18.152Z,64.17
2017-11-18T12:30:18.128Z,64.17
2017-11-18T12:31:18.112Z,63.89
2017-11-18T12:32:18.082Z,64.17
2017-11-18T12:33:18.064Z,64.27
2017-11-18T12:34:18.057Z,63.98
2017-11-18T12:35:18.063Z,63.98
2017-11-18T12:36:17.984Z,64.17
2017-11-18T12:37:17.970Z,64.17
2017-11-18T12:38:17.940Z,64.56
2017-11-18T12:39:17.916Z,64.46
2017-11-18T12:40:17.908Z,64.37
2017-11-18T12:41:17.862Z,64.27
2017-11-18T12:42:17.850Z,64.37
2017-11-18T12:43:17.825Z,63.89
2017-11-18T12:44:17.794Z,63.98
2017-11-18T12:45:17.768Z,63.42
2017-11-18T12:46:17.745Z,63.89
2017-11-18T12:47:17.725Z,63.98
2017-11-18T12:48:17.695Z,63.70
2017-11-18T12:49:17.685Z,63.51
2017-11-18T12:50:17.649Z,63.32
2017-11-18T12:51:17.626Z,63.13
2017-11-18T12:52:17.603Z,63.32
2017-11-18T12:53:17.580Z,63.13